createdAt,value
2022-10-03T00:07:37.716Z,101261.59
2022-10-03T00:22:35.567Z,101274.88
2022-10-03T00:37:33.634Z,101295.65
2022-10-03T00:52:55.549Z,101298.73
2022-10-03T01:08:14.570Z,101321.86
2022-10-03T01:23:32.422Z,101342.94
2022-10-03T01:38:56.350Z,101354.45
2022-10-03T01:54:06.016Z,101347.65
2022-10-03T02:09:05.497Z,101350.41
2022-10-03T02:39:39.281Z,101350.12
2022-10-03T02:54:42.625Z,101340.11
2022-10-03T03:25:29.116Z,101339.11
2022-10-03T03:40:51.406Z,101363.14
2022-10-03T03:56:00.247Z,101360.86
2022-10-03T04:11:14.537Z,101367.91
2022-10-03T04:26:25.447Z,101383.19
2022-10-03T04:41:32.992Z,101389.17
2022-10-03T04:56:29.866Z,101389.22
2022-10-03T05:11:40.179Z,101387.45
2022-10-03T05:26:45.244Z,101414.20
2022-10-03T05:41:34.925Z,101429.16
2022-10-03T05:56:41.039Z,101436.14
2022-10-03T06:12:00.144Z,101458.80
2022-10-03T06:27:15.840Z,101476.31
2022-10-03T06:42:12.263Z,101497.42
2022-10-03T06:57:09.201Z,101498.26
2022-10-03T07:12:32.863Z,101510.70
2022-10-03T07:27:56.532Z,101512.88
2022-10-03T07:43:12.201Z,101523.50
2022-10-03T08:13:54.059Z,101549.30
2022-10-03T08:29:17.723Z,101555.44
2022-10-03T08:44:36.967Z,101562.37
2022-10-03T09:00:00.051Z,101562.52
2022-10-03T09:15:36.388Z,101559.58
2022-10-03T09:30:37.209Z,101553.70
2022-10-03T09:46:06.551Z,101555.15
2022-10-03T10:01:33.228Z,101550.63
2022-10-03T10:16:48.392Z,101551.08
2022-10-03T10:32:21.886Z,101541.53
2022-10-03T10:47:56.208Z,101533.57
2022-10-03T11:03:31.831Z,101532.31
2022-10-03T11:19:06.694Z,101527.81
2022-10-03T11:34:29.895Z,101527.12
2022-10-03T12:21:18.467Z,101474.95
2022-10-03T12:37:01.000Z,101470.82
2022-10-03T13:07:34.435Z,101448.53
2022-10-03T13:22:35.217Z,101444.49
2022-10-03T13:37:30.812Z,101428.50
2022-10-03T13:52:29.513Z,101413.85
2022-10-03T14:07:31.731Z,101416.58
2022-10-03T14:22:41.113Z,101403.56
2022-10-03T14:52:55.076Z,101387.66
2022-10-03T15:07:48.876Z,101389.34
2022-10-03T15:22:40.024Z,101374.67
2022-10-03T15:37:36.826Z,101367.93
2022-10-03T15:52:37.727Z,101360.90
2022-10-03T16:07:35.204Z,101357.58
2022-10-03T16:22:29.655Z,101361.75
2022-10-03T16:37:26.599Z,101352.02
2022-10-03T16:52:24.731Z,101347.01
2022-10-03T17:07:21.897Z,101347.95
2022-10-03T17:22:15.468Z,101336.97
2022-10-03T17:37:28.626Z,101338.30
2022-10-03T17:52:24.413Z,101307.59
2022-10-03T18:07:18.089Z,101309.59
2022-10-03T18:22:24.593Z,101321.12
2022-10-03T18:37:28.176Z,101334.54
2022-10-03T18:52:23.308Z,101315.55
2022-10-03T19:07:23.631Z,101318.28
2022-10-03T19:22:18.437Z,101309.92
2022-10-03T19:37:25.644Z,101310.91
2022-10-03T20:11:49.446Z,101297.45
2022-10-03T20:26:45.172Z,101291.80
2022-10-03T20:41:39.686Z,101282.33
2022-10-03T20:56:29.635Z,101273.01
2022-10-03T21:11:23.379Z,101272.48
2022-10-03T21:26:22.885Z,101260.44
2022-10-03T21:41:39.243Z,101245.19
2022-10-03T21:56:40.976Z,101241.12
2022-10-03T22:11:42.086Z,101224.28
2022-10-03T22:26:38.736Z,101212.92
2022-10-03T22:41:32.128Z,101213.23
2022-10-03T22:56:46.592Z,101187.97
2022-10-03T23:11:43.828Z,101177.43
2022-10-03T23:27:02.185Z,101164.09
2022-10-03T23:41:58.727Z,101149.79
2022-10-03T23:56:49.056Z,101138.56
